Time;durP1;ratioP1;P1;durP2;ratioP2;P2;SDS_P1;SDS_P2;PMS_P1;PMS_P2;Temp;Humidity;BMP_temperature;BMP_pressure;BME280_temperature;BME280_humidity;BME280_pressure;Samples;Min_cycle;Max_cycle;Signal;HPM_P1;HPM_P2
2021/10/15 00:01:30;;;;;;;6.82;0.70;;;19.70;79.30;;;;;;5010431;28;20053;-57
2021/10/15 00:03:57;;;;;;;2.28;0.68;;;19.70;79.60;;;;;;5009832;28;20158;-63
2021/10/15 00:06:26;;;;;;;2.25;0.70;;;19.70;80.00;;;;;;5010482;28;20101;-59
2021/10/15 00:08:53;;;;;;;5.25;0.70;;;19.80;79.50;;;;;;5008974;28;20021;-58
2021/10/15 00:11:21;;;;;;;6.47;0.82;;;19.80;77.80;;;;;;5010426;28;20029;-60
2021/10/15 00:13:48;;;;;;;4.72;0.82;;;19.90;70.40;;;;;;5009926;28;20029;-62
2021/10/15 00:16:15;;;;;;;2.55;0.73;;;20.00;73.60;;;;;;5009838;28;20507;-59
2021/10/15 00:18:43;;;;;;;7.53;0.90;;;20.10;73.90;;;;;;5009771;28;20026;-61
2021/10/15 00:21:10;;;;;;;7.03;1.42;;;20.10;72.30;;;;;;5010250;28;20112;-61
2021/10/15 00:23:37;;;;;;;4.45;1.00;;;20.20;69.50;;;;;;5010392;28;20388;-58
2021/10/15 00:26:05;;;;;;;4.15;0.70;;;20.30;72.70;;;;;;5007016;28;20026;-60
2021/10/15 00:28:35;;;;;;;4.13;1.00;;;20.30;70.10;;;;;;5007740;28;20022;-58
2021/10/15 00:31:03;;;;;;;3.25;0.90;;;20.40;69.50;;;;;;5008172;28;20053;-56
2021/10/15 00:33:31;;;;;;;9.43;1.58;;;20.50;66.60;;;;;;5008646;28;20068;-55
2021/10/15 00:35:58;;;;;;;4.60;1.02;;;20.50;63.70;;;;;;5008906;28;20034;-63
2021/10/15 00:38:25;;;;;;;4.05;0.85;;;20.50;70.70;;;;;;5010047;28;20030;-62
2021/10/15 00:40:53;;;;;;;3.35;0.70;;;20.40;68.70;;;;;;5009889;28;20026;-64
2021/10/15 00:43:20;;;;;;;5.78;0.85;;;20.40;71.80;;;;;;5009721;28;20030;-64
2021/10/15 00:45:47;;;;;;;6.18;1.17;;;20.30;70.80;;;;;;5009459;28;20040;-63
2021/10/15 00:48:15;;;;;;;4.53;1.50;;;20.40;71.50;;;;;;5009549;28;20022;-63
2021/10/15 00:50:45;;;;;;;6.90;0.80;;;20.40;72.20;;;;;;5010208;28;20086;-62
2021/10/15 00:53:13;;;;;;;4.47;1.00;;;20.40;69.90;;;;;;5009611;28;20088;-62
2021/10/15 00:55:42;;;;;;;13.02;1.35;;;20.60;69.20;;;;;;5009407;28;20034;-64
2021/10/15 00:58:10;;;;;;;7.55;0.88;;;20.60;67.80;;;;;;5009296;28;20380;-62
2021/10/15 01:00:37;;;;;;;4.28;0.90;;;20.70;70.60;;;;;;5008962;28;20185;-64
2021/10/15 01:03:07;;;;;;;5.75;1.02;;;20.70;69.80;;;;;;4991607;28;20030;-64
2021/10/15 01:05:35;;;;;;;2.08;0.70;;;20.80;66.50;;;;;;5008947;28;20049;-62
2021/10/15 01:08:03;;;;;;;3.80;0.80;;;20.80;70.40;;;;;;5010857;28;20023;-61
2021/10/15 01:10:30;;;;;;;7.32;1.23;;;20.80;69.30;;;;;;5012784;28;20157;-63
2021/10/15 01:12:59;;;;;;;3.75;0.70;;;20.90;70.20;;;;;;5012392;28;20034;-60
2021/10/15 01:15:26;;;;;;;10.40;1.55;;;20.90;70.30;;;;;;5012117;28;20037;-62
2021/10/15 01:17:54;;;;;;;6.53;1.38;;;21.00;69.50;;;;;;5012526;28;20030;-63
2021/10/15 01:20:21;;;;;;;2.65;0.70;;;21.00;68.30;;;;;;5012770;28;20025;-66
2021/10/15 01:22:49;;;;;;;7.75;1.73;;;21.00;69.50;;;;;;5012632;28;20066;-65
2021/10/15 01:25:17;;;;;;;10.20;1.30;;;21.10;68.60;;;;;;5005405;28;20022;-67
2021/10/15 01:27:44;;;;;;;11.07;1.65;;;21.10;70.10;;;;;;5012245;28;20026;-69
2021/10/15 01:30:12;;;;;;;7.75;1.65;;;21.10;68.90;;;;;;5010194;28;21394;-68
2021/10/15 01:32:39;;;;;;;11.07;1.60;;;21.10;69.10;;;;;;5010406;28;20117;-65
2021/10/15 01:35:07;;;;;;;8.75;1.73;;;21.20;67.50;;;;;;5009436;28;20136;-68
2021/10/15 01:37:34;;;;;;;8.43;1.45;;;21.20;68.40;;;;;;5012709;28;20128;-69
2021/10/15 01:40:02;;;;;;;10.02;1.50;;;21.10;68.80;;;;;;5012486;28;20022;-67
2021/10/15 01:45:14;;;;;;;18.35;1.88;;;21.00;67.00;;;;;;5012645;28;20095;-69
2021/10/15 01:47:42;;;;;;;8.50;1.45;;;21.00;66.40;;;;;;5012400;28;20045;-58
2021/10/15 01:50:09;;;;;;;15.90;1.75;;;21.00;67.30;;;;;;5011530;28;20196;-66
2021/10/15 01:52:37;;;;;;;12.45;2.35;;;21.00;67.50;;;;;;5011693;28;20030;-66
2021/10/15 01:55:07;;;;;;;11.25;2.70;;;20.90;68.00;;;;;;5011421;28;20050;-62
2021/10/15 01:57:36;;;;;;;8.73;1.83;;;21.00;67.70;;;;;;4994595;28;20404;-67
2021/10/15 02:00:08;;;;;;;10.60;2.28;;;21.00;67.50;;;;;;5011503;28;20051;-66
2021/10/15 02:02:36;;;;;;;11.68;1.67;;;21.00;66.70;;;;;;4993624;28;20058;-66
2021/10/15 02:05:05;;;;;;;12.27;2.22;;;21.10;66.00;;;;;;5011467;28;20027;-53
2021/10/15 02:07:32;;;;;;;15.38;2.13;;;21.20;63.90;;;;;;5012456;28;20040;-63
2021/10/15 02:10:00;;;;;;;13.27;2.25;;;21.30;62.80;;;;;;5012426;28;20037;-59
2021/10/15 02:12:27;;;;;;;16.17;2.05;;;21.30;64.70;;;;;;5012153;28;20029;-64
2021/10/15 02:14:54;;;;;;;9.70;2.03;;;21.30;64.40;;;;;;5011488;28;20044;-59
2021/10/15 02:17:22;;;;;;;10.68;2.13;;;21.10;66.10;;;;;;5011543;28;20061;-58
2021/10/15 02:19:50;;;;;;;14.57;2.17;;;21.00;65.70;;;;;;5010982;28;20448;-60
2021/10/15 02:22:17;;;;;;;12.43;3.25;;;20.90;64.80;;;;;;5011944;28;20511;-53
2021/10/15 02:24:44;;;;;;;10.38;2.75;;;20.90;65.80;;;;;;5011258;28;20018;-54
2021/10/15 02:27:12;;;;;;;16.20;2.20;;;20.80;65.60;;;;;;5010851;28;20051;-56
2021/10/15 02:29:40;;;;;;;10.73;2.00;;;20.60;65.60;;;;;;5011573;28;20029;-55
2021/10/15 02:32:08;;;;;;;9.50;1.77;;;20.60;65.50;;;;;;5011549;28;20076;-53
2021/10/15 02:34:35;;;;;;;12.95;2.33;;;20.50;65.10;;;;;;5011855;28;20021;-54
2021/10/15 02:37:02;;;;;;;14.32;1.67;;;20.40;65.70;;;;;;5011200;28;20030;-64
2021/10/15 02:39:30;;;;;;;11.95;1.70;;;20.40;65.80;;;;;;5011404;28;20125;-59
2021/10/15 02:41:57;;;;;;;8.95;1.85;;;20.30;66.30;;;;;;4994010;28;20030;-57
2021/10/15 02:44:24;;;;;;;18.30;1.88;;;20.30;66.30;;;;;;5011672;28;20026;-57
2021/10/15 02:46:52;;;;;;;13.65;1.65;;;20.30;65.90;;;;;;5011264;28;20113;-60
2021/10/15 02:49:19;;;;;;;8.27;1.60;;;20.20;66.20;;;;;;5011613;28;20057;-56
2021/10/15 02:51:46;;;;;;;11.45;1.67;;;20.20;67.30;;;;;;5011741;28;20026;-57
2021/10/15 02:54:14;;;;;;;9.38;1.40;;;20.20;66.50;;;;;;5010928;28;20038;-63
2021/10/15 02:56:44;;;;;;;11.90;1.73;;;20.20;65.00;;;;;;5011815;28;20026;-58
2021/10/15 02:59:11;;;;;;;5.63;1.25;;;20.20;67.80;;;;;;4994195;28;20495;-60
2021/10/15 03:01:39;;;;;;;8.35;1.40;;;20.30;66.90;;;;;;5012159;28;20025;-58
2021/10/15 03:04:06;;;;;;;15.85;1.67;;;20.30;65.40;;;;;;5011409;28;20018;-65
2021/10/15 03:06:35;;;;;;;10.63;1.60;;;20.30;65.60;;;;;;5011566;28;20483;-65
2021/10/15 03:09:03;;;;;;;11.85;1.73;;;20.30;67.10;;;;;;5011452;28;20041;-60
2021/10/15 03:11:30;;;;;;;10.20;1.38;;;20.40;67.30;;;;;;5011581;28;20156;-67
2021/10/15 03:13:58;;;;;;;15.98;1.70;;;20.40;65.90;;;;;;4994054;28;20049;-59
2021/10/15 03:16:25;;;;;;;10.35;1.60;;;20.50;66.00;;;;;;5011370;28;20029;-62
2021/10/15 03:18:53;;;;;;;9.80;1.63;;;20.60;64.80;;;;;;5011187;28;20057;-63
2021/10/15 03:21:20;;;;;;;6.05;1.40;;;20.60;64.60;;;;;;5010965;28;20382;-59
2021/10/15 03:23:47;;;;;;;11.63;1.35;;;20.70;66.10;;;;;;4993751;28;20026;-68
2021/10/15 03:26:15;;;;;;;8.68;1.25;;;20.70;65.20;;;;;;5011201;28;20037;-59
2021/10/15 03:28:43;;;;;;;6.63;1.25;;;20.70;64.70;;;;;;4993229;28;20029;-66
2021/10/15 03:31:10;;;;;;;9.05;1.45;;;20.80;64.80;;;;;;5009779;28;20057;-66
2021/10/15 03:33:37;;;;;;;6.72;1.15;;;20.80;63.80;;;;;;5010829;28;20496;-62
2021/10/15 03:36:05;;;;;;;9.70;1.10;;;20.70;64.80;;;;;;5010746;28;20030;-59
2021/10/15 03:38:32;;;;;;;5.47;1.13;;;20.70;66.00;;;;;;5010757;28;20437;-62
2021/10/15 03:41:00;;;;;;;4.63;1.08;;;20.70;66.30;;;;;;5010020;28;20026;-61
2021/10/15 03:43:27;;;;;;;7.07;1.10;;;20.60;65.90;;;;;;5009980;28;20044;-62
2021/10/15 03:45:54;;;;;;;11.13;1.10;;;20.60;66.10;;;;;;5010574;28;20104;-61
2021/10/15 03:48:22;;;;;;;5.97;1.30;;;20.60;66.10;;;;;;5010366;28;20022;-58
2021/10/15 03:50:49;;;;;;;5.70;1.23;;;20.60;66.70;;;;;;5010505;28;20040;-61
2021/10/15 03:53:25;;;;;;;7.57;1.08;;;20.50;67.40;;;;;;5089443;27;20414;-58
2021/10/15 03:55:52;;;;;;;6.10;0.82;;;20.50;66.80;;;;;;5089817;28;20036;-61
2021/10/15 03:58:19;;;;;;;5.78;0.90;;;20.40;67.20;;;;;;5089133;28;20028;-67
2021/10/15 04:00:47;;;;;;;4.63;1.25;;;20.40;67.70;;;;;;5090179;28;20017;-67
2021/10/15 04:03:14;;;;;;;10.48;1.38;;;20.30;67.70;;;;;;5089715;28;20470;-60
2021/10/15 04:05:41;;;;;;;9.27;1.13;;;20.30;68.90;;;;;;5089637;28;20033;-65
2021/10/15 04:08:09;;;;;;;7.05;1.38;;;20.30;69.00;;;;;;5089606;28;20179;-61
2021/10/15 04:10:36;;;;;;;6.85;1.15;;;20.20;69.20;;;;;;5089623;28;20099;-62
2021/10/15 04:13:03;;;;;;;7.25;1.13;;;20.30;68.70;;;;;;5089420;28;20031;-64
2021/10/15 04:15:31;;;;;;;4.72;1.25;;;20.30;67.60;;;;;;5089836;28;20020;-66
2021/10/15 04:17:58;;;;;;;6.45;0.88;;;20.30;68.70;;;;;;5089603;28;20111;-66
2021/10/15 04:20:25;;;;;;;5.88;1.10;;;20.40;68.20;;;;;;5089566;28;20100;-66
2021/10/15 04:22:53;;;;;;;7.03;1.33;;;20.40;68.70;;;;;;5088316;28;20020;-58
2021/10/15 04:25:20;;;;;;;2.67;0.63;;;20.40;67.40;;;;;;5089676;28;20028;-58
2021/10/15 04:27:47;;;;;;;3.45;1.00;;;20.40;67.10;;;;;;5088343;28;20085;-55
2021/10/15 04:30:15;;;;;;;6.43;1.10;;;20.50;65.90;;;;;;5089642;28;20025;-64
2021/10/15 04:32:42;;;;;;;3.42;0.93;;;20.50;66.50;;;;;;5089183;28;20081;-58
2021/10/15 04:35:10;;;;;;;5.68;1.05;;;20.50;66.30;;;;;;5085173;28;20028;-62
2021/10/15 04:37:37;;;;;;;5.82;1.48;;;20.60;66.60;;;;;;5089195;28;20028;-58
2021/10/15 04:40:05;;;;;;;8.95;1.25;;;20.50;68.00;;;;;;5086989;28;20080;-62
2021/10/15 04:42:33;;;;;;;9.77;0.93;;;20.50;65.90;;;;;;5088956;28;20113;-56
2021/10/15 04:45:00;;;;;;;6.88;1.25;;;20.60;66.20;;;;;;5088683;28;20027;-60
2021/10/15 04:47:27;;;;;;;5.72;0.80;;;20.70;66.90;;;;;;5088575;28;20021;-64
2021/10/15 04:49:55;;;;;;;6.45;1.23;;;20.70;65.50;;;;;;5088694;28;20081;-55
2021/10/15 04:52:22;;;;;;;3.78;0.60;;;20.70;67.00;;;;;;5088653;28;20231;-65
2021/10/15 04:54:49;;;;;;;3.58;0.60;;;20.70;65.80;;;;;;5089157;28;20107;-60
2021/10/15 04:57:17;;;;;;;6.63;1.77;;;20.70;66.50;;;;;;5088449;28;20381;-62
2021/10/15 04:59:44;;;;;;;3.30;1.00;;;20.70;67.40;;;;;;5088706;28;20026;-56
2021/10/15 05:02:12;;;;;;;4.28;1.27;;;20.70;66.70;;;;;;5088934;28;20059;-61
2021/10/15 05:04:40;;;;;;;4.63;0.98;;;20.70;66.50;;;;;;5075798;28;20043;-55
2021/10/15 05:07:08;;;;;;;4.93;1.15;;;20.70;67.90;;;;;;5074806;28;20032;-55
2021/10/15 05:09:36;;;;;;;4.45;1.05;;;20.70;67.30;;;;;;5073576;28;20020;-58
2021/10/15 05:12:13;;;;;;;3.15;0.60;;;20.60;67.90;;;;;;5074400;28;20090;-54
2021/10/15 05:14:41;;;;;;;5.13;0.93;;;20.60;67.70;;;;;;5074503;28;20028;-54
2021/10/15 05:17:09;;;;;;;3.67;0.80;;;20.60;67.70;;;;;;5074506;28;20021;-60
2021/10/15 05:19:37;;;;;;;3.38;0.70;;;20.60;68.20;;;;;;5074853;28;20044;-52
2021/10/15 05:22:05;;;;;;;3.58;0.60;;;20.60;67.60;;;;;;5074979;28;20075;-55
2021/10/15 05:24:32;;;;;;;7.15;0.85;;;20.50;67.10;;;;;;5074772;28;20486;-56
2021/10/15 05:26:59;;;;;;;4.45;0.50;;;20.50;67.60;;;;;;5073638;28;20424;-54
2021/10/15 05:29:27;;;;;;;3.20;0.80;;;20.50;68.60;;;;;;5074273;28;20104;-56
2021/10/15 05:31:54;;;;;;;3.00;0.82;;;20.50;67.80;;;;;;5074288;28;20340;-61
2021/10/15 05:34:22;;;;;;;4.30;0.75;;;20.40;68.50;;;;;;5073183;28;20032;-64
2021/10/15 05:36:52;;;;;;;5.88;0.50;;;20.40;66.30;;;;;;5072510;28;20024;-59
2021/10/15 05:39:20;;;;;;;2.03;0.70;;;20.40;67.50;;;;;;5074052;28;20534;-60
2021/10/15 05:41:47;;;;;;;5.45;0.65;;;20.40;65.90;;;;;;5073802;28;20024;-63
2021/10/15 05:44:14;;;;;;;3.45;0.60;;;20.30;67.30;;;;;;5074072;28;20112;-66
2021/10/15 05:46:42;;;;;;;3.67;0.50;;;20.30;67.50;;;;;;5072685;28;20024;-53
2021/10/15 05:49:09;;;;;;;1.45;0.55;;;20.30;68.70;;;;;;5074053;28;20040;-62
2021/10/15 05:51:41;;;;;;;2.30;0.73;;;20.30;66.80;;;;;;5072719;28;20127;-65
2021/10/15 05:54:11;;;;;;;4.38;0.80;;;20.30;68.30;;;;;;5074660;28;20107;-65
2021/10/15 05:56:58;;;;;;;2.53;0.63;;;20.30;66.40;;;;;;5074128;28;20021;-64
2021/10/15 05:59:26;;;;;;;6.53;1.05;;;20.20;68.70;;;;;;5074139;28;20034;-64
2021/10/15 06:01:57;;;;;;;5.95;0.70;;;20.30;67.80;;;;;;5074413;28;20071;-61
2021/10/15 06:14:10;;;;;;;3.10;0.43;;;20.30;68.10;;;;;;5073716;28;20017;-60
2021/10/15 06:15:35;;;;;;;3.08;0.60;;;20.30;68.40;;;;;;5072766;28;20351;-64
2021/10/15 06:18:15;;;;;;;3.08;0.60;;;20.20;67.60;;;;;;5072911;28;20028;-62
2021/10/15 06:20:42;;;;;;;4.47;0.47;;;20.20;68.00;;;;;;5073199;28;20103;-57
2021/10/15 06:23:10;;;;;;;1.60;0.43;;;20.20;67.20;;;;;;5073553;28;20086;-68
2021/10/15 06:25:38;;;;;;;3.30;0.43;;;20.20;69.00;;;;;;5073436;28;20024;-64
2021/10/15 06:28:15;;;;;;;2.10;0.47;;;20.20;66.50;;;;;;5072941;28;20055;-65
2021/10/15 06:30:43;;;;;;;1.13;0.32;;;20.20;68.10;;;;;;5073212;28;20113;-59
2021/10/15 06:33:10;;;;;;;1.77;0.50;;;20.20;68.20;;;;;;5071700;28;20036;-66
2021/10/15 06:35:38;;;;;;;2.05;0.55;;;20.20;67.60;;;;;;5073358;28;20442;-61
2021/10/15 06:38:07;;;;;;;3.20;0.47;;;20.10;68.10;;;;;;5072712;28;20025;-61
2021/10/15 06:40:38;;;;;;;1.67;0.28;;;20.20;68.30;;;;;;5072776;28;20086;-66
2021/10/15 06:43:09;;;;;;;1.90;0.57;;;20.10;67.80;;;;;;5073001;28;20035;-67
2021/10/15 06:45:40;;;;;;;0.70;0.43;;;20.10;67.90;;;;;;5072965;28;20033;-65
2021/10/15 06:48:07;;;;;;;1.80;0.35;;;20.10;68.40;;;;;;5073313;28;20085;-62
2021/10/15 06:50:35;;;;;;;4.15;0.60;;;20.10;68.00;;;;;;5072953;28;20047;-58
2021/10/15 06:53:10;;;;;;;3.03;0.30;;;20.00;67.70;;;;;;5072412;28;20471;-60
2021/10/15 06:55:38;;;;;;;1.77;0.73;;;20.10;67.80;;;;;;5072253;28;20029;-65
2021/10/15 06:58:06;;;;;;;1.25;0.35;;;20.00;67.60;;;;;;5072200;28;20123;-64
2021/10/15 07:00:33;;;;;;;2.20;0.60;;;20.00;68.60;;;;;;5071091;28;20025;-57
2021/10/15 07:03:01;;;;;;;2.05;0.40;;;20.00;67.20;;;;;;5072022;28;20112;-66
2021/10/15 07:05:28;;;;;;;3.40;0.45;;;20.00;67.20;;;;;;5072217;28;20482;-64
2021/10/15 07:07:56;;;;;;;0.73;0.20;;;20.00;68.00;;;;;;5072024;28;20036;-61
2021/10/15 07:10:25;;;;;;;2.03;0.63;;;20.00;68.30;;;;;;5070768;28;20091;-59
2021/10/15 07:12:53;;;;;;;2.50;0.40;;;20.00;68.40;;;;;;5072349;28;20036;-66
2021/10/15 07:15:21;;;;;;;3.45;0.40;;;20.00;68.50;;;;;;5071517;28;20471;-64
2021/10/15 07:17:48;;;;;;;1.30;0.43;;;19.90;68.80;;;;;;5054745;28;20032;-64
2021/10/15 07:20:16;;;;;;;1.23;0.40;;;20.00;68.80;;;;;;5073054;28;20016;-62
2021/10/15 07:22:43;;;;;;;1.40;0.45;;;20.00;68.90;;;;;;5072462;28;20043;-63
2021/10/15 07:25:10;;;;;;;1.77;0.40;;;19.90;68.80;;;;;;5072571;28;20021;-60
2021/10/15 07:27:39;;;;;;;0.45;0.20;;;19.90;68.90;;;;;;5070837;28;20032;-59
2021/10/15 07:30:09;;;;;;;0.50;0.30;;;19.90;68.60;;;;;;5072514;28;20028;-66
2021/10/15 07:32:37;;;;;;;2.03;0.43;;;19.90;69.00;;;;;;5072550;28;20494;-66
2021/10/15 07:35:05;;;;;;;1.05;0.45;;;19.90;68.30;;;;;;5068773;28;20029;-65
2021/10/15 07:37:33;;;;;;;2.42;0.30;;;19.80;69.00;;;;;;5072652;28;20147;-68
2021/10/15 07:40:00;;;;;;;1.85;0.50;;;19.80;69.20;;;;;;5072007;28;20032;-59
2021/10/15 07:42:27;;;;;;;2.03;0.50;;;19.80;69.40;;;;;;5072400;28;20031;-66
2021/10/15 07:45:02;;;;;;;1.17;0.40;;;19.80;69.50;;;;;;5072018;28;20020;-67
2021/10/15 07:47:29;;;;;;;1.75;0.30;;;19.80;69.00;;;;;;5072513;28;20031;-64
2021/10/15 07:49:56;;;;;;;0.90;0.43;;;19.80;69.50;;;;;;5072357;28;20013;-64
2021/10/15 07:52:24;;;;;;;1.52;0.40;;;19.80;70.20;;;;;;5071963;28;20357;-64
2021/10/15 07:54:51;;;;;;;0.70;0.30;;;19.80;69.80;;;;;;5071732;28;20431;-55
2021/10/15 07:57:19;;;;;;;0.80;0.28;;;19.70;69.80;;;;;;5071978;28;20032;-65
2021/10/15 07:59:50;;;;;;;0.32;0.20;;;19.70;69.80;;;;;;5072082;28;20067;-62
2021/10/15 08:02:17;;;;;;;1.20;0.40;;;19.70;69.90;;;;;;5071017;28;20048;-67
2021/10/15 08:04:45;;;;;;;1.77;0.38;;;19.70;70.00;;;;;;5071930;28;20468;-61
2021/10/15 08:07:12;;;;;;;2.22;0.30;;;19.70;70.10;;;;;;5054414;28;20502;-63
2021/10/15 08:09:40;;;;;;;1.52;0.30;;;19.70;70.00;;;;;;5071926;28;20025;-63
2021/10/15 08:12:07;;;;;;;1.15;0.30;;;19.60;69.70;;;;;;5072068;28;20537;-59
2021/10/15 08:14:35;;;;;;;3.03;0.50;;;19.70;69.70;;;;;;5072049;28;20029;-55
2021/10/15 08:17:03;;;;;;;1.00;0.25;;;19.60;69.30;;;;;;5072027;28;20063;-60
2021/10/15 08:19:30;;;;;;;1.95;0.38;;;19.60;69.40;;;;;;5071375;28;20544;-63
2021/10/15 08:21:58;;;;;;;0.85;0.40;;;19.60;69.80;;;;;;5068274;28;20028;-66
2021/10/15 08:24:25;;;;;;;1.25;0.32;;;19.60;69.80;;;;;;5072578;28;20045;-58
2021/10/15 08:26:54;;;;;;;1.42;0.22;;;19.60;69.90;;;;;;5072095;28;20040;-61
2021/10/15 08:29:23;;;;;;;2.15;0.40;;;19.60;69.90;;;;;;5072481;28;20040;-65
2021/10/15 08:31:51;;;;;;;0.22;0.20;;;19.60;69.60;;;;;;5072414;28;20382;-64
2021/10/15 08:34:20;;;;;;;3.60;0.32;;;19.50;70.10;;;;;;5071579;28;20113;-64
2021/10/15 08:36:47;;;;;;;1.70;0.38;;;19.60;70.40;;;;;;5071566;28;20028;-62
2021/10/15 08:39:18;;;;;;;1.08;0.40;;;19.50;70.30;;;;;;5073104;28;20025;-62
2021/10/15 08:41:45;;;;;;;1.75;0.35;;;19.50;70.00;;;;;;5075174;28;20024;-64
2021/10/15 08:44:13;;;;;;;1.88;0.28;;;19.50;70.20;;;;;;5075858;28;20050;-58
2021/10/15 08:46:40;;;;;;;1.70;0.30;;;19.50;70.20;;;;;;5076051;28;20043;-65
2021/10/15 08:49:08;;;;;;;1.23;0.30;;;19.50;70.50;;;;;;5074553;28;20466;-68
2021/10/15 08:51:39;;;;;;;4.53;0.63;;;19.40;70.20;;;;;;5075262;28;20139;-63
2021/10/15 08:54:07;;;;;;;2.15;0.40;;;19.40;70.50;;;;;;5075478;28;20020;-57
2021/10/15 08:56:35;;;;;;;0.95;0.40;;;19.50;71.10;;;;;;5075797;28;20540;-59
2021/10/15 08:59:05;;;;;;;0.32;0.30;;;19.40;71.00;;;;;;5075563;28;20505;-62
2021/10/15 09:01:45;;;;;;;0.60;0.40;;;19.40;70.90;;;;;;5075417;28;20033;-63
2021/10/15 09:04:23;;;;;;;1.33;0.35;;;19.40;71.20;;;;;;5075587;28;20025;-58
2021/10/15 09:06:51;;;;;;;0.98;0.45;;;19.40;71.30;;;;;;5075153;28;20055;-65
2021/10/15 09:09:30;;;;;;;3.50;0.80;;;19.30;71.50;;;;;;5075206;28;20021;-65
2021/10/15 09:12:08;;;;;;;0.30;0.17;;;19.30;71.50;;;;;;5075107;28;20029;-63
2021/10/15 09:14:37;;;;;;;1.40;0.43;;;19.30;71.70;;;;;;5075390;28;20036;-67
2021/10/15 09:17:08;;;;;;;0.98;0.35;;;19.20;71.70;;;;;;5074983;28;20024;-63
2021/10/15 09:19:42;;;;;;;1.55;0.30;;;19.30;71.80;;;;;;5074999;28;20025;-53
2021/10/15 09:22:18;;;;;;;0.73;0.43;;;19.20;71.90;;;;;;5075082;28;20028;-57
2021/10/15 09:25:11;;;;;;;1.58;0.40;;;19.20;71.90;;;;;;5074718;28;20086;-60
2021/10/15 09:27:46;;;;;;;1.15;0.30;;;19.20;71.80;;;;;;5075229;28;20025;-54
2021/10/15 09:30:15;;;;;;;3.40;0.40;;;19.20;72.00;;;;;;5074995;28;20028;-56
2021/10/15 09:32:48;;;;;;;2.85;0.52;;;19.20;72.00;;;;;;5074556;28;20055;-56
2021/10/15 09:35:19;;;;;;;1.42;0.38;;;19.10;72.10;;;;;;5074712;28;20021;-62
2021/10/15 09:37:48;;;;;;;1.75;0.28;;;19.10;72.20;;;;;;5075080;28;20071;-58
2021/10/15 09:40:20;;;;;;;0.40;0.35;;;19.10;72.30;;;;;;5074716;28;20025;-57
2021/10/15 09:42:53;;;;;;;1.52;0.30;;;19.10;72.40;;;;;;5074060;28;20035;-55
2021/10/15 09:45:27;;;;;;;1.58;0.20;;;19.00;72.30;;;;;;5074449;28;20055;-56
2021/10/15 09:47:59;;;;;;;1.23;0.70;;;19.00;72.50;;;;;;5073661;28;20039;-62
2021/10/15 09:50:29;;;;;;;0.43;0.20;;;19.00;72.90;;;;;;5074458;28;20455;-56
2021/10/15 09:52:59;;;;;;;0.90;0.50;;;19.00;72.70;;;;;;5072583;28;20044;-56
2021/10/15 09:55:40;;;;;;;2.15;0.50;;;19.00;72.60;;;;;;5074336;28;20104;-62
2021/10/15 09:58:20;;;;;;;1.33;0.40;;;19.00;72.50;;;;;;5074408;28;20020;-61
2021/10/15 10:00:48;;;;;;;1.30;0.30;;;18.90;72.70;;;;;;5074143;28;20489;-59
2021/10/15 10:03:17;;;;;;;1.08;0.40;;;18.90;72.60;;;;;;5074209;28;20029;-57
2021/10/15 10:05:44;;;;;;;2.95;0.45;;;18.90;72.80;;;;;;5074171;28;20029;-61
2021/10/15 10:08:12;;;;;;;0.68;0.40;;;18.90;72.80;;;;;;5074008;28;20439;-61
2021/10/15 10:10:42;;;;;;;1.02;0.50;;;18.90;73.00;;;;;;5073970;28;20024;-56
2021/10/15 10:13:11;;;;;;;1.05;0.47;;;18.90;73.10;;;;;;5072756;28;20040;-58
2021/10/15 10:15:41;;;;;;;0.75;0.40;;;18.80;73.10;;;;;;5074117;28;20044;-60
2021/10/15 10:18:23;;;;;;;0.40;0.32;;;18.80;73.30;;;;;;5074033;28;20387;-62
2021/10/15 10:21:04;;;;;;;0.65;0.30;;;18.80;73.20;;;;;;5073995;28;20459;-61
2021/10/15 10:24:00;;;;;;;0.30;0.20;;;18.80;73.30;;;;;;5073897;28;20044;-61
2021/10/15 10:26:28;;;;;;;0.45;0.20;;;18.80;73.30;;;;;;5071016;28;20040;-63
2021/10/15 10:29:06;;;;;;;1.13;0.52;;;18.80;73.20;;;;;;5073623;28;20031;-58
2021/10/15 10:31:34;;;;;;;1.73;0.40;;;18.80;73.40;;;;;;5073754;28;20025;-64
2021/10/15 10:34:06;;;;;;;0.98;0.30;;;18.80;73.40;;;;;;5073555;28;20109;-66
2021/10/15 10:36:34;;;;;;;;;;;18.70;73.30;;;;;;5074102;28;20021;-62
2021/10/15 10:39:20;;;;;;;0.30;0.30;;;18.70;73.30;;;;;;5073290;28;19909;-64
2021/10/15 10:42:07;;;;;;;1.73;0.45;;;18.70;73.30;;;;;;5073255;28;20028;-59
2021/10/15 10:44:36;;;;;;;1.75;0.60;;;18.70;73.30;;;;;;5072350;28;20025;-59
2021/10/15 10:47:15;;;;;;;1.52;0.50;;;18.60;73.30;;;;;;5073254;28;20539;-59
2021/10/15 10:50:08;;;;;;;2.83;0.47;;;18.60;73.50;;;;;;5073296;28;20024;-62
2021/10/15 10:52:48;;;;;;;0.28;0.25;;;18.60;73.50;;;;;;5073037;28;20494;-61
2021/10/15 10:55:42;;;;;;;0.40;0.25;;;18.60;73.60;;;;;;5073052;28;20431;-61
2021/10/15 10:58:39;;;;;;;0.28;0.28;;;18.60;73.70;;;;;;5073516;28;20025;-64
2021/10/15 11:01:28;;;;;;;1.50;0.30;;;18.50;73.70;;;;;;5064499;28;20119;-63
2021/10/15 11:03:59;;;;;;;0.52;0.30;;;18.50;73.70;;;;;;5073106;28;20024;-56
2021/10/15 11:06:59;;;;;;;0.95;0.40;;;18.50;73.70;;;;;;5072957;28;20024;-58
2021/10/15 11:09:38;;;;;;;1.52;0.20;;;18.50;73.70;;;;;;5072924;28;20021;-63
2021/10/15 11:12:07;;;;;;;0.38;0.20;;;18.50;73.70;;;;;;5073026;28;20032;-61
2021/10/15 11:14:52;;;;;;;1.05;0.30;;;18.50;73.90;;;;;;5072870;28;20379;-60
2021/10/15 11:17:30;;;;;;;0.73;0.35;;;18.50;73.90;;;;;;5072500;28;20033;-61
2021/10/15 11:20:22;;;;;;;0.38;0.30;;;18.50;74.00;;;;;;5072924;28;20028;-64
2021/10/15 11:23:22;;;;;;;1.15;0.30;;;18.40;73.90;;;;;;5072603;28;20028;-60
2021/10/15 11:25:50;;;;;;;0.93;0.30;;;18.40;73.90;;;;;;5063601;28;20436;-52
2021/10/15 11:28:20;;;;;;;0.20;0.20;;;18.40;73.90;;;;;;5072609;28;20036;-60
2021/10/15 11:30:54;;;;;;;1.00;0.30;;;18.40;73.90;;;;;;5072242;28;20048;-61
2021/10/15 11:33:25;;;;;;;0.90;0.60;;;18.40;73.90;;;;;;5072638;28;20082;-57
2021/10/15 11:35:53;;;;;;;0.82;0.40;;;18.40;73.90;;;;;;5072482;28;20028;-62
2021/10/15 11:38:28;;;;;;;1.10;0.30;;;18.40;74.00;;;;;;5072368;28;20036;-62
2021/10/15 11:41:03;;;;;;;0.85;0.40;;;18.30;73.80;;;;;;5072170;28;20032;-61
2021/10/15 11:43:32;;;;;;;0.45;0.32;;;18.30;73.90;;;;;;5072370;28;20126;-64
2021/10/15 11:46:07;;;;;;;0.57;0.32;;;18.30;73.90;;;;;;5072676;28;20025;-59
2021/10/15 11:48:37;;;;;;;0.38;0.20;;;18.30;74.00;;;;;;5072378;28;20028;-62
2021/10/15 11:51:05;;;;;;;0.52;0.43;;;18.30;74.00;;;;;;5072383;28;20024;-59
2021/10/15 11:53:40;;;;;;;0.68;0.20;;;18.30;74.00;;;;;;5072417;28;20033;-61
2021/10/15 11:56:10;;;;;;;0.75;0.45;;;18.30;74.10;;;;;;5072421;28;20032;-65
2021/10/15 11:58:51;;;;;;;0.65;0.32;;;18.20;74.00;;;;;;5070824;28;20035;-65
2021/10/15 12:01:23;;;;;;;0.52;0.30;;;18.20;74.00;;;;;;5072604;28;20421;-59
2021/10/15 12:04:00;;;;;;;1.17;0.50;;;18.20;74.10;;;;;;5072633;28;20025;-61
2021/10/15 12:06:38;;;;;;;0.68;0.30;;;18.20;74.20;;;;;;5072560;28;20028;-61
2021/10/15 12:09:09;;;;;;;0.70;0.43;;;18.20;74.20;;;;;;5073486;28;20123;-64
2021/10/15 12:14:07;;;;;;;0.98;0.32;;;18.20;74.20;;;;;;5076733;28;20124;-58
2021/10/15 12:16:54;;;;;;;1.20;0.20;;;18.20;74.10;;;;;;5076672;28;20112;-55
2021/10/15 12:19:25;;;;;;;1.17;0.50;;;18.20;74.20;;;;;;5068617;28;20107;-54
2021/10/15 12:22:02;;;;;;;1.50;0.40;;;18.10;74.10;;;;;;5068121;28;20012;-56
2021/10/15 12:24:36;;;;;;;0.93;0.30;;;18.10;74.20;;;;;;5068006;28;20512;-63
2021/10/15 12:27:12;;;;;;;3.03;0.60;;;18.10;74.20;;;;;;5071868;28;20099;-60
2021/10/15 12:29:47;;;;;;;0.70;0.47;;;18.10;74.10;;;;;;5072215;28;20025;-53
2021/10/15 12:32:27;;;;;;;0.30;0.20;;;18.10;74.10;;;;;;5070951;28;20033;-63
2021/10/15 12:35:16;;;;;;;2.22;0.40;;;18.10;74.10;;;;;;5066951;28;20029;-57
2021/10/15 12:37:51;;;;;;;0.73;0.40;;;18.10;74.10;;;;;;5071701;28;20048;-59
2021/10/15 12:40:42;;;;;;;0.30;0.20;;;18.10;74.10;;;;;;5071443;28;20442;-57
2021/10/15 12:43:15;;;;;;;0.38;0.30;;;18.10;74.10;;;;;;5069133;28;20029;-55
2021/10/15 12:45:49;;;;;;;0.50;0.40;;;18.10;74.10;;;;;;5066677;28;20024;-58
2021/10/15 12:48:23;;;;;;;0.25;0.25;;;18.00;73.90;;;;;;5073031;28;20151;-62
2021/10/15 12:51:02;;;;;;;0.30;0.20;;;18.00;73.90;;;;;;5070384;28;20077;-59
2021/10/15 12:53:43;;;;;;;0.70;0.30;;;18.00;74.10;;;;;;5072480;28;20040;-59
2021/10/15 12:56:41;;;;;;;1.25;0.30;;;18.00;74.00;;;;;;5069851;28;20101;-57
2021/10/15 12:59:18;;;;;;;1.42;0.40;;;18.00;74.00;;;;;;5070332;28;20041;-56
2021/10/15 13:01:45;;;;;;;0.50;0.28;;;18.00;74.00;;;;;;5071703;28;20036;-56
2021/10/15 13:04:21;;;;;;;1.13;0.30;;;18.00;74.10;;;;;;5072914;28;20487;-56
2021/10/15 13:06:49;;;;;;;0.55;0.20;;;18.00;74.10;;;;;;5069302;28;20127;-58
2021/10/15 13:09:16;;;;;;;0.43;0.32;;;17.90;74.00;;;;;;5072724;28;20032;-59
2021/10/15 13:11:44;;;;;;;0.35;0.25;;;18.00;74.10;;;;;;5072268;28;20059;-58
2021/10/15 13:14:11;;;;;;;0.65;0.30;;;17.90;74.10;;;;;;5072842;28;20068;-60
2021/10/15 13:16:39;;;;;;;0.45;0.40;;;17.90;74.10;;;;;;5069649;28;20024;-59